createdAt,value
2018-11-06T00:01:29.943Z,11.73
2018-11-06T00:04:04.165Z,10.90
2018-11-06T00:06:32.286Z,11.70
2018-11-06T00:09:00.384Z,12.40
2018-11-06T00:11:28.494Z,12.17
2018-11-06T00:13:56.567Z,11.20
2018-11-06T00:16:24.638Z,12.30
2018-11-06T00:18:52.711Z,10.37
2018-11-06T00:21:20.766Z,10.23
2018-11-06T00:23:48.847Z,10.60
2018-11-06T00:26:16.906Z,10.80
2018-11-06T00:28:44.990Z,10.80
2018-11-06T00:31:13.062Z,10.30
2018-11-06T00:33:41.154Z,10.77
2018-11-06T00:36:09.206Z,10.27
2018-11-06T00:38:37.267Z,10.30
2018-11-06T00:41:05.358Z,12.13
2018-11-06T00:43:33.434Z,11.57
2018-11-06T00:46:01.502Z,11.23
2018-11-06T00:48:29.578Z,11.17
2018-11-06T00:50:57.650Z,12.87
2018-11-06T00:53:25.718Z,11.43
2018-11-06T00:55:53.783Z,12.60
2018-11-06T00:58:21.838Z,11.43
2018-11-06T01:00:49.924Z,10.53
2018-11-06T01:03:17.982Z,10.53
2018-11-06T01:05:46.050Z,13.00
2018-11-06T01:08:14.120Z,10.30
2018-11-06T01:10:42.178Z,10.90
2018-11-06T01:13:10.250Z,10.30
2018-11-06T01:15:38.319Z,11.50
2018-11-06T01:18:06.414Z,11.27
2018-11-06T01:20:34.490Z,10.67
2018-11-06T01:23:02.559Z,10.43
2018-11-06T01:25:30.662Z,11.00
2018-11-06T01:27:58.769Z,11.43
2018-11-06T01:30:26.939Z,10.50
2018-11-06T01:32:55.099Z,10.57
2018-11-06T01:35:23.167Z,10.03
2018-11-06T01:37:51.243Z,10.20
2018-11-06T01:40:19.352Z,10.10
2018-11-06T01:42:48.226Z,9.80
2018-11-06T01:45:16.935Z,9.43
2018-11-06T01:47:45.019Z,9.93
2018-11-06T01:50:14.414Z,10.53
2018-11-06T01:52:43.598Z,9.10
2018-11-06T01:55:12.272Z,9.07
2018-11-06T01:57:40.476Z,10.03
2018-11-06T02:00:16.941Z,11.13
2018-11-06T02:02:44.987Z,9.23
2018-11-06T02:05:14.214Z,10.20
2018-11-06T02:07:43.414Z,10.67
2018-11-06T02:10:12.675Z,11.17
2018-11-06T02:12:41.408Z,10.77
2018-11-06T02:15:09.867Z,12.67
2018-11-06T02:17:38.654Z,13.23
2018-11-06T02:20:06.890Z,12.37
2018-11-06T02:22:34.946Z,12.73
2018-11-06T02:25:03.268Z,13.00
2018-11-06T02:27:31.329Z,11.57
2018-11-06T02:29:59.370Z,11.63
2018-11-06T02:32:27.533Z,10.63
2018-11-06T02:34:55.505Z,12.10
2018-11-06T02:37:23.838Z,11.87
2018-11-06T02:39:51.918Z,10.80
2018-11-06T02:42:19.988Z,10.50
2018-11-06T02:44:48.063Z,10.63
2018-11-06T02:47:16.131Z,12.30
2018-11-06T02:49:44.229Z,14.17
2018-11-06T02:52:12.307Z,12.73
2018-11-06T02:54:40.382Z,11.47
2018-11-06T02:57:08.491Z,13.20
2018-11-06T02:59:36.601Z,11.97
2018-11-06T03:02:04.872Z,12.60
2018-11-06T03:04:32.954Z,12.30
2018-11-06T03:07:01.031Z,12.23
2018-11-06T03:09:29.074Z,10.80
2018-11-06T03:11:57.147Z,12.13
2018-11-06T03:14:25.522Z,11.80
2018-11-06T03:16:53.667Z,13.20
2018-11-06T03:19:21.763Z,12.77
2018-11-06T03:21:49.874Z,13.40
2018-11-06T03:24:17.975Z,12.87
2018-11-06T03:26:46.316Z,12.87
2018-11-06T03:29:14.254Z,12.83
2018-11-06T03:31:42.343Z,12.67
2018-11-06T03:34:10.417Z,12.80
2018-11-06T03:36:38.506Z,13.53
2018-11-06T03:39:08.004Z,12.07
2018-11-06T03:41:36.117Z,12.70
2018-11-06T03:44:04.389Z,13.03
2018-11-06T03:46:32.458Z,11.77
2018-11-06T03:49:00.823Z,12.40
2018-11-06T03:51:29.187Z,13.13
2018-11-06T03:53:57.291Z,12.40
2018-11-06T03:56:25.360Z,13.33
2018-11-06T03:58:53.430Z,10.80
2018-11-06T04:01:21.508Z,13.03
2018-11-06T04:03:49.613Z,12.17
2018-11-06T04:06:17.678Z,13.07
2018-11-06T04:08:45.747Z,12.93
2018-11-06T04:11:13.823Z,11.57
2018-11-06T04:13:41.918Z,12.33
2018-11-06T04:16:10.008Z,12.87
2018-11-06T04:18:38.094Z,12.33
2018-11-06T04:21:06.165Z,12.50
2018-11-06T04:23:34.242Z,13.30
2018-11-06T04:26:02.314Z,12.37
2018-11-06T04:28:30.413Z,12.67
2018-11-06T04:30:58.463Z,13.00
2018-11-06T04:33:26.526Z,14.00
2018-11-06T04:35:54.610Z,11.90
2018-11-06T04:38:22.686Z,12.43
2018-11-06T04:40:50.766Z,11.47
2018-11-06T04:43:18.874Z,11.60
2018-11-06T04:45:47.036Z,11.50
2018-11-06T04:48:15.114Z,13.13
2018-11-06T04:50:43.182Z,11.33
2018-11-06T04:53:11.274Z,10.67
2018-11-06T04:55:39.346Z,12.33
2018-11-06T04:58:07.418Z,10.73
2018-11-06T05:00:35.488Z,11.83
2018-11-06T05:03:03.580Z,11.77
2018-11-06T05:05:31.662Z,12.33
2018-11-06T05:07:59.722Z,12.67
2018-11-06T05:10:27.794Z,11.70
2018-11-06T05:12:55.851Z,12.13
2018-11-06T05:15:23.948Z,11.20
2018-11-06T05:17:52.027Z,12.77
2018-11-06T05:20:20.111Z,11.90
2018-11-06T05:22:48.172Z,11.67
2018-11-06T05:25:16.445Z,12.03
2018-11-06T05:27:44.486Z,12.20
2018-11-06T05:30:12.918Z,11.70
2018-11-06T05:32:42.496Z,12.27
2018-11-06T05:35:11.163Z,12.50
2018-11-06T05:37:39.442Z,12.40
2018-11-06T05:40:19.150Z,12.27
2018-11-06T05:42:47.216Z,11.47
2018-11-06T05:45:15.436Z,10.30
2018-11-06T05:47:43.501Z,11.83
2018-11-06T05:50:11.571Z,11.53
2018-11-06T05:52:39.646Z,11.70
2018-11-06T05:55:07.715Z,11.50
2018-11-06T05:57:35.887Z,11.37
2018-11-06T06:00:04.058Z,10.53
2018-11-06T06:02:32.310Z,11.30
2018-11-06T06:05:00.379Z,10.67
2018-11-06T06:07:28.453Z,9.93
2018-11-06T06:09:56.650Z,10.27
2018-11-06T06:12:24.727Z,10.57
2018-11-06T06:14:52.798Z,10.90
2018-11-06T06:17:20.929Z,11.53
2018-11-06T06:19:48.962Z,10.50
2018-11-06T06:22:17.073Z,11.00
2018-11-06T06:24:45.104Z,9.97
2018-11-06T06:27:13.183Z,11.23
2018-11-06T06:29:41.255Z,11.40
2018-11-06T06:32:09.626Z,10.67
2018-11-06T06:34:38.078Z,10.00
2018-11-06T06:37:06.558Z,11.13
2018-11-06T06:39:34.678Z,12.00
2018-11-06T06:42:02.762Z,11.87
2018-11-06T06:44:30.840Z,12.20
2018-11-06T06:46:59.252Z,13.30
2018-11-06T06:49:27.347Z,13.07
2018-11-06T06:51:55.580Z,13.67
2018-11-06T06:54:23.845Z,13.10
2018-11-06T06:56:51.818Z,13.37
2018-11-06T06:59:19.891Z,13.43
2018-11-06T07:01:48.241Z,13.33
2018-11-06T07:04:17.914Z,14.37
2018-11-06T07:06:46.158Z,14.97
2018-11-06T07:09:14.233Z,11.70
2018-11-06T07:11:42.479Z,13.27
2018-11-06T07:14:10.669Z,14.23
2018-11-06T07:16:38.739Z,13.37
2018-11-06T07:19:06.803Z,13.60
2018-11-06T07:21:34.916Z,14.87
2018-11-06T07:24:03.302Z,13.77
2018-11-06T07:26:31.792Z,13.50
2018-11-06T07:28:59.979Z,14.03
2018-11-06T07:31:27.943Z,12.87
2018-11-06T07:33:56.031Z,13.80
2018-11-06T07:36:24.134Z,13.70
2018-11-06T07:38:52.231Z,13.10
2018-11-06T07:41:20.326Z,13.23
2018-11-06T07:43:48.447Z,13.33
2018-11-06T07:46:16.513Z,14.40
2018-11-06T07:48:44.710Z,14.37
2018-11-06T07:51:12.781Z,14.20
2018-11-06T07:53:40.869Z,14.03
2018-11-06T07:56:09.070Z,14.00
2018-11-06T07:58:37.099Z,14.33
2018-11-06T08:01:05.659Z,14.40
2018-11-06T08:03:33.859Z,13.37
2018-11-06T08:06:01.907Z,14.13
2018-11-06T08:08:29.989Z,14.20
2018-11-06T08:10:58.054Z,13.23
2018-11-06T08:13:26.248Z,12.30
2018-11-06T08:15:54.295Z,13.70
2018-11-06T08:18:22.366Z,13.67
2018-11-06T08:20:50.430Z,13.97
2018-11-06T08:23:18.510Z,15.07
2018-11-06T08:25:46.582Z,13.40
2018-11-06T08:28:14.670Z,13.97
2018-11-06T08:30:42.859Z,14.70
2018-11-06T08:33:10.894Z,14.00
2018-11-06T08:35:38.939Z,13.07
2018-11-06T08:38:07.011Z,13.87
2018-11-06T08:40:35.194Z,13.63
2018-11-06T08:43:03.279Z,13.97
2018-11-06T08:45:31.425Z,14.63
2018-11-06T08:47:59.526Z,14.10
2018-11-06T08:51:57.107Z,13.57
2018-11-06T08:54:25.220Z,13.57
2018-11-06T08:56:53.338Z,13.57
2018-11-06T08:59:21.454Z,11.87
2018-11-06T09:01:49.595Z,12.80
2018-11-06T09:04:17.675Z,11.97
2018-11-06T09:06:45.904Z,12.50
2018-11-06T09:09:14.011Z,12.37
2018-11-06T09:11:42.080Z,12.53
2018-11-06T09:14:10.154Z,12.87
2018-11-06T09:16:38.544Z,13.00
2018-11-06T09:19:06.614Z,12.40
2018-11-06T09:21:34.695Z,12.47
2018-11-06T09:24:02.898Z,13.43
2018-11-06T09:26:31.053Z,12.00
2018-11-06T09:28:59.118Z,12.57
2018-11-06T09:31:28.403Z,11.33
2018-11-06T09:33:56.734Z,10.63
2018-11-06T09:36:25.004Z,11.20
2018-11-06T09:38:53.087Z,10.80
2018-11-06T09:41:21.192Z,10.63
2018-11-06T09:43:49.240Z,10.97
2018-11-06T09:46:17.327Z,10.37
2018-11-06T09:48:45.396Z,10.83
2018-11-06T09:51:13.559Z,10.73
2018-11-06T09:53:41.991Z,10.57
2018-11-06T09:56:10.103Z,10.80
2018-11-06T09:58:38.203Z,10.93
2018-11-06T10:01:06.292Z,10.47
2018-11-06T10:03:34.363Z,9.97
2018-11-06T10:06:02.781Z,9.97
2018-11-06T10:08:30.815Z,8.70
2018-11-06T10:10:58.929Z,10.57
2018-11-06T10:13:27.052Z,11.17
2018-11-06T10:15:55.137Z,11.17
2018-11-06T10:18:23.556Z,11.17
2018-11-06T10:20:51.627Z,10.83
2018-11-06T10:23:19.699Z,9.80
2018-11-06T10:25:47.830Z,10.17
2018-11-06T10:28:15.962Z,12.28
2018-11-06T10:30:44.065Z,9.70
2018-11-06T10:33:12.099Z,8.53
2018-11-06T10:35:40.170Z,9.40
2018-11-06T10:38:08.304Z,8.97
2018-11-06T10:40:36.354Z,8.30
2018-11-06T10:43:04.558Z,7.73
2018-11-06T10:45:32.721Z,7.77
2018-11-06T10:48:00.798Z,7.57
2018-11-06T10:50:28.867Z,7.47
2018-11-06T10:52:56.918Z,6.57
2018-11-06T10:55:24.994Z,6.60
2018-11-06T10:57:53.064Z,5.97
2018-11-06T11:00:26.526Z,5.80
2018-11-06T11:02:59.906Z,6.93
2018-11-06T11:05:29.049Z,5.67
2018-11-06T11:07:57.102Z,5.03
2018-11-06T11:10:25.175Z,4.83
2018-11-06T11:12:53.260Z,5.40
2018-11-06T11:15:21.339Z,5.37
2018-11-06T11:17:49.675Z,5.00
2018-11-06T11:20:17.816Z,5.20
2018-11-06T11:22:45.841Z,4.60
2018-11-06T11:25:15.220Z,5.00
2018-11-06T11:27:43.999Z,5.43
2018-11-06T11:30:13.479Z,5.50
2018-11-06T11:32:43.008Z,4.73
2018-11-06T11:35:11.388Z,5.43
2018-11-06T11:37:39.676Z,4.93
2018-11-06T11:40:08.858Z,5.20
2018-11-06T11:42:37.232Z,4.97
2018-11-06T11:45:06.488Z,4.43
2018-11-06T11:47:34.595Z,4.67
2018-11-06T11:50:02.679Z,5.00
2018-11-06T11:52:30.769Z,4.20
2018-11-06T11:54:59.160Z,4.30
2018-11-06T11:57:27.159Z,3.52
2018-11-06T11:59:55.406Z,3.73
2018-11-06T12:02:23.469Z,3.87
2018-11-06T12:04:51.485Z,5.67
2018-11-06T12:07:19.564Z,5.42
2018-11-06T12:09:47.626Z,5.47
2018-11-06T12:12:15.777Z,6.10
2018-11-06T12:14:43.832Z,6.60
2018-11-06T12:17:11.962Z,6.80
2018-11-06T12:19:39.995Z,6.58
2018-11-06T12:22:08.222Z,5.78
2018-11-06T12:24:36.390Z,5.95
2018-11-06T12:27:04.619Z,4.45
2018-11-06T12:29:32.694Z,4.53
2018-11-06T12:32:01.111Z,4.92
2018-11-06T12:34:29.211Z,4.65
2018-11-06T12:36:57.532Z,4.70
2018-11-06T12:39:25.544Z,4.90
2018-11-06T12:41:53.615Z,5.83
2018-11-06T12:44:21.704Z,5.35
2018-11-06T12:46:49.759Z,6.30
2018-11-06T12:49:17.822Z,6.87
2018-11-06T12:51:45.870Z,7.37
2018-11-06T12:54:13.984Z,6.65
2018-11-06T12:56:42.346Z,6.72
2018-11-06T12:59:10.415Z,7.25
2018-11-06T13:01:38.477Z,6.62
2018-11-06T13:04:06.548Z,6.03
2018-11-06T13:06:34.619Z,6.78
2018-11-06T13:09:02.703Z,7.85
2018-11-06T13:11:30.771Z,6.60
2018-11-06T13:13:58.835Z,6.62
2018-11-06T13:16:26.907Z,7.53
2018-11-06T13:18:55.001Z,6.83
2018-11-06T13:21:23.047Z,6.37
2018-11-06T13:23:51.131Z,6.00
2018-11-06T13:26:19.362Z,7.17
2018-11-06T13:28:47.349Z,6.33
2018-11-06T13:31:15.421Z,7.50
2018-11-06T13:33:43.549Z,7.35
2018-11-06T13:36:11.670Z,7.70
2018-11-06T13:38:39.710Z,7.75
2018-11-06T13:41:07.950Z,7.72
2018-11-06T13:43:36.149Z,6.67
2018-11-06T13:46:04.494Z,7.25
2018-11-06T13:48:32.605Z,6.83
2018-11-06T13:51:00.666Z,5.75
2018-11-06T13:53:28.720Z,8.00
2018-11-06T13:55:56.808Z,6.95
2018-11-06T13:58:25.262Z,6.25
2018-11-06T14:00:53.352Z,5.72
2018-11-06T14:03:21.427Z,5.72
2018-11-06T14:05:49.487Z,5.20
2018-11-06T14:08:17.559Z,5.40
2018-11-06T14:10:45.628Z,4.70
2018-11-06T14:13:13.693Z,4.92
2018-11-06T14:15:41.892Z,4.58
2018-11-06T14:18:09.971Z,4.15
2018-11-06T14:20:38.042Z,4.87
2018-11-06T14:23:06.147Z,5.53
2018-11-06T14:25:34.215Z,4.92
2018-11-06T14:28:02.287Z,4.97
2018-11-06T14:30:30.376Z,5.12
2018-11-06T14:32:58.443Z,4.80
2018-11-06T14:35:26.850Z,4.70
2018-11-06T14:37:54.911Z,5.47
2018-11-06T14:40:23.291Z,5.03
2018-11-06T14:42:51.417Z,5.15
2018-11-06T14:45:19.684Z,4.70
2018-11-06T14:47:48.143Z,4.85
2018-11-06T14:50:16.203Z,4.70
2018-11-06T14:52:44.287Z,5.30
2018-11-06T14:55:13.699Z,5.00
2018-11-06T14:57:41.805Z,4.77
2018-11-06T15:00:14.257Z,5.53
2018-11-06T15:02:43.232Z,5.27
2018-11-06T15:05:11.291Z,4.63
2018-11-06T15:07:39.354Z,4.93
2018-11-06T15:10:08.068Z,5.27
2018-11-06T15:12:36.473Z,4.40
2018-11-06T15:15:05.601Z,4.90
2018-11-06T15:17:33.674Z,5.10
2018-11-06T15:20:01.824Z,5.03
2018-11-06T15:22:29.899Z,5.00
2018-11-06T15:24:58.319Z,5.17
2018-11-06T15:27:26.411Z,4.97
2018-11-06T15:29:54.467Z,4.87
2018-11-06T15:32:22.623Z,5.10
2018-11-06T15:34:50.603Z,5.47
2018-11-06T15:37:18.939Z,5.73
2018-11-06T15:39:47.049Z,5.27
2018-11-06T15:42:15.084Z,5.27
2018-11-06T15:44:43.159Z,6.10
2018-11-06T15:47:11.225Z,5.10
2018-11-06T15:49:39.643Z,5.73
2018-11-06T15:52:07.746Z,5.50
2018-11-06T15:54:36.028Z,5.17
2018-11-06T15:57:04.235Z,4.93
2018-11-06T15:59:32.320Z,5.40
2018-11-06T16:02:00.645Z,5.40
2018-11-06T16:04:28.793Z,5.73
2018-11-06T16:06:56.918Z,4.90
2018-11-06T16:09:24.955Z,5.83
2018-11-06T16:11:53.003Z,5.33
2018-11-06T16:14:21.338Z,6.47
2018-11-06T16:16:49.422Z,5.97
2018-11-06T16:19:17.862Z,5.77
2018-11-06T16:21:45.940Z,5.67
2018-11-06T16:24:14.070Z,6.13
2018-11-06T16:26:42.458Z,5.40
2018-11-06T16:29:10.532Z,5.03
2018-11-06T16:31:38.622Z,5.10
2018-11-06T16:34:06.697Z,5.27
2018-11-06T16:36:34.777Z,5.80
2018-11-06T16:39:02.923Z,5.40
2018-11-06T16:41:31.054Z,5.20
2018-11-06T16:43:59.059Z,5.17
2018-11-06T16:46:27.119Z,6.37
2018-11-06T16:48:55.243Z,6.23
2018-11-06T16:51:23.690Z,7.40
2018-11-06T16:53:51.756Z,6.87
2018-11-06T16:56:19.846Z,5.90
2018-11-06T16:58:48.787Z,6.87
2018-11-06T17:01:17.043Z,6.50
2018-11-06T17:03:45.301Z,5.80
2018-11-06T17:07:17.499Z,5.77
2018-11-06T17:09:45.959Z,6.10
2018-11-06T17:12:14.035Z,5.80
2018-11-06T17:14:42.087Z,6.03
2018-11-06T17:17:10.210Z,4.93
2018-11-06T17:19:38.230Z,5.83
2018-11-06T17:22:06.311Z,6.10
2018-11-06T17:24:34.374Z,5.83
2018-11-06T17:27:02.543Z,6.23
2018-11-06T17:29:30.609Z,5.97
2018-11-06T17:31:58.702Z,6.73
2018-11-06T17:34:26.790Z,6.20
2018-11-06T17:36:54.869Z,6.20
2018-11-06T17:39:23.000Z,6.13
2018-11-06T17:41:51.089Z,6.17
2018-11-06T17:44:19.126Z,5.67
2018-11-06T17:46:47.471Z,6.60
2018-11-06T17:49:15.562Z,6.53
2018-11-06T17:51:43.677Z,8.00
2018-11-06T17:54:11.753Z,6.23
2018-11-06T17:56:40.171Z,6.07
2018-11-06T17:59:08.239Z,7.10
2018-11-06T18:01:36.308Z,5.57
2018-11-06T18:04:04.474Z,5.90
2018-11-06T18:06:32.466Z,7.10
2018-11-06T18:09:00.539Z,6.63
2018-11-06T18:11:28.623Z,8.53
2018-11-06T18:13:56.719Z,7.73
2018-11-06T18:16:24.798Z,6.40
2018-11-06T18:18:52.883Z,7.63
2018-11-06T18:21:21.053Z,7.10
2018-11-06T18:23:49.196Z,7.57
2018-11-06T18:26:17.296Z,6.63
2018-11-06T18:28:45.371Z,7.47
2018-11-06T18:31:13.447Z,7.70
2018-11-06T18:33:41.513Z,7.17
2018-11-06T18:36:09.923Z,8.53
2018-11-06T18:38:38.004Z,8.93
2018-11-06T18:41:06.067Z,9.57
2018-11-06T18:43:34.179Z,10.72
2018-11-06T18:46:02.251Z,8.73
2018-11-06T18:48:30.359Z,8.67
2018-11-06T18:50:58.419Z,10.00
2018-11-06T18:53:26.549Z,7.63
2018-11-06T18:55:54.587Z,8.67
2018-11-06T18:58:22.745Z,7.67
2018-11-06T19:00:51.057Z,8.00
2018-11-06T19:03:19.131Z,8.30
2018-11-06T19:05:47.230Z,8.60
2018-11-06T19:08:15.323Z,8.23
2018-11-06T19:10:43.480Z,9.93
2018-11-06T19:13:11.488Z,7.57
2018-11-06T19:15:39.595Z,8.83
2018-11-06T19:18:07.680Z,9.13
2018-11-06T19:20:35.775Z,10.23
2018-11-06T19:23:03.839Z,9.80
2018-11-06T19:25:32.096Z,10.03
2018-11-06T19:28:00.167Z,11.03
2018-11-06T19:30:28.313Z,10.43
2018-11-06T19:32:56.327Z,10.40
2018-11-06T19:35:24.382Z,11.17
2018-11-06T19:37:52.718Z,11.07
2018-11-06T19:40:20.808Z,12.37
2018-11-06T19:42:49.383Z,12.97
2018-11-06T19:45:17.476Z,11.93
2018-11-06T19:47:45.531Z,11.13
2018-11-06T19:50:15.446Z,13.60
2018-11-06T19:52:43.411Z,13.13
2018-11-06T19:55:12.716Z,12.53
2018-11-06T19:57:40.995Z,12.67
2018-11-06T20:00:20.041Z,12.67
2018-11-06T20:02:49.195Z,11.77
2018-11-06T20:05:17.300Z,10.97
2018-11-06T20:07:45.979Z,10.73
2018-11-06T20:10:15.382Z,10.70
2018-11-06T20:12:44.586Z,10.40
2018-11-06T20:15:14.078Z,10.20
2018-11-06T20:17:42.782Z,10.67
2018-11-06T20:20:15.769Z,12.85
2018-11-06T20:22:44.320Z,11.80
2018-11-06T20:25:12.827Z,15.20
2018-11-06T20:27:40.962Z,14.07
2018-11-06T20:30:11.222Z,14.47
2018-11-06T20:32:39.305Z,14.57
2018-11-06T20:35:08.491Z,14.40
2018-11-06T20:37:36.717Z,15.13
2018-11-06T20:40:06.726Z,13.43
2018-11-06T20:42:34.867Z,13.20
2018-11-06T20:45:02.902Z,12.67
2018-11-06T20:47:30.958Z,13.50
2018-11-06T20:49:59.044Z,12.90
2018-11-06T20:52:27.154Z,10.67
2018-11-06T20:54:55.223Z,9.27
2018-11-06T20:57:23.373Z,9.27
2018-11-06T20:59:51.438Z,10.23
2018-11-06T21:02:19.510Z,9.57
2018-11-06T21:04:47.587Z,10.27
2018-11-06T21:07:15.659Z,9.77
2018-11-06T21:09:43.731Z,8.27
2018-11-06T21:12:11.799Z,9.87
2018-11-06T21:14:39.931Z,9.37
2018-11-06T21:17:07.993Z,10.13
2018-11-06T21:19:36.074Z,8.83
2018-11-06T21:22:04.769Z,9.80
2018-11-06T21:24:32.884Z,9.43
2018-11-06T21:27:02.095Z,11.20
2018-11-06T21:29:30.035Z,8.63
2018-11-06T21:31:58.095Z,10.07
2018-11-06T21:34:26.163Z,8.73
2018-11-06T21:36:54.306Z,8.90
2018-11-06T21:39:22.379Z,8.73
2018-11-06T21:41:50.455Z,9.07
2018-11-06T21:44:18.526Z,9.57
2018-11-06T21:46:46.600Z,9.53
2018-11-06T21:49:14.667Z,8.90
2018-11-06T21:51:42.750Z,8.63
2018-11-06T21:54:10.899Z,9.23
2018-11-06T21:56:39.026Z,8.97
2018-11-06T21:59:07.106Z,8.30
2018-11-06T22:01:35.276Z,9.00
2018-11-06T22:04:03.375Z,8.97
2018-11-06T22:06:31.443Z,9.30
2018-11-06T22:08:59.515Z,9.80
2018-11-06T22:11:27.645Z,8.93
2018-11-06T22:13:55.733Z,9.77
2018-11-06T22:16:23.807Z,8.97
2018-11-06T22:18:51.889Z,8.50
2018-11-06T22:21:20.053Z,8.70
2018-11-06T22:23:48.122Z,8.53
2018-11-06T22:26:16.179Z,9.37
2018-11-06T22:28:44.259Z,8.83
2018-11-06T22:31:12.400Z,8.63
2018-11-06T22:33:40.423Z,8.33
2018-11-06T22:36:08.510Z,8.67
2018-11-06T22:38:36.582Z,8.60
2018-11-06T22:41:04.744Z,8.90
2018-11-06T22:43:32.815Z,8.70
2018-11-06T22:46:00.875Z,9.13
2018-11-06T22:48:29.007Z,8.83
2018-11-06T22:50:57.090Z,8.10
2018-11-06T22:53:25.243Z,8.37
2018-11-06T22:55:53.242Z,8.40
2018-11-06T22:58:21.335Z,8.43
2018-11-06T23:00:54.887Z,8.10
2018-11-06T23:03:22.979Z,10.68
2018-11-06T23:05:51.174Z,8.87
2018-11-06T23:08:24.765Z,8.30
2018-11-06T23:10:52.983Z,8.53
2018-11-06T23:13:21.054Z,7.80
2018-11-06T23:15:49.490Z,7.50
2018-11-06T23:18:17.646Z,7.87
2018-11-06T23:20:45.731Z,7.50
2018-11-06T23:23:13.807Z,7.97
2018-11-06T23:25:42.036Z,8.30
2018-11-06T23:28:10.119Z,7.90
2018-11-06T23:30:38.224Z,8.40
2018-11-06T23:33:06.337Z,7.80
2018-11-06T23:35:34.438Z,8.83
2018-11-06T23:38:02.502Z,8.47
2018-11-06T23:40:30.610Z,7.67
2018-11-06T23:42:58.702Z,7.63
2018-11-06T23:45:26.787Z,7.73
2018-11-06T23:47:54.879Z,8.40
2018-11-06T23:50:22.967Z,8.00
2018-11-06T23:52:51.306Z,7.77
2018-11-06T23:55:19.415Z,7.73
2018-11-06T23:57:47.476Z,7.90
